To NAV CANADA Home Page Login to a new session Search on AWWS site Feedback and Comments Disclaimer Vers la page française équivalente Tips FAQ What's new on the site To the Forecasts and Observations / NOTAM section To "File a Flight Plan" website Publications and other links Update of the User's profile FIC Telephone Numbers My Weather Data Folder Route Weather Data Regional Weather Data Local Weather Data To the Forecasts and Observations / NOTAM section
Request Generated 04/28/2015 at 19:46:29 UTC . Weather information available at that time is displayed.

METAR/TAF

HALIFAX/STANFIELD INTL/NS    

SPECI CYHZ 281932Z 35018KT 6SM -RASN BKN009 BKN017 02/01 A2920 RMK
SF5SC2 SLP894=
SPECI CYHZ 281914Z 34012G21KT 6SM -RASN BKN009 OVC019 03/02 A2921 RMK
SF6SC2 SLP896=
METAR CYHZ 281900Z 34019G25KT 6SM -RA BKN012 BKN025 03/01 A2921 RMK
SC5SC2 SLP896=
METAR CYHZ 281800Z CCA 35019G28KT 6SM -RASN BKN008 OVC012 03/01 A2923
RMK SF6SC2 SLP901=
METAR CYHZ 281800Z 35019G28KT 6SM -RASN BKN008 OVC012 03/01 A2923 RMK
SF6SC2 SLP901=
METAR CYHZ 281700Z 33022G30KT 6SM -RASN OVC008 02/01 A2925 RMK SF8
SLP911=

TAF CYHZ 281738Z 2818/2918 33020G30KT 2SM -SN OVC004 TEMPO 2818/2822
6SM -RASN BR SCT004 OVC010 PROB40 2818/2822 OVC002
FM282200 36012KT 4SM -DZ BR OVC004 PROB30 2822/2906 1SM BR OVC003
FM290600 35006KT 4SM BR SCT002 OVC004 PROB40 2906/2912 1/2SM FZFG
VV002
FM291200 35010KT P6SM OVC008
FM291500 34012KT 6SM -SHRA BR OVC010
RMK NXT FCST BY 282100Z=
Your time UTC time
Weather data provided by Environment Canada and NAV CANADA